sensor_id;sensor_type;location;lat;lon;timestamp;pressure;altitude;pressure_sealevel;temperature;humidity
57094;BME280;42970;50.996;3.706;2022-12-13T00:00:02;78531.66;;;-146.65;100.00
57094;BME280;42970;50.996;3.706;2022-12-13T00:02:27;78527.63;;;-146.65;100.00
57094;BME280;42970;50.996;3.706;2022-12-13T00:04:53;78527.63;;;-146.65;100.00
57094;BME280;42970;50.996;3.706;2022-12-13T00:07:18;78531.66;;;-146.65;100.00
57094;BME280;42970;50.996;3.706;2022-12-13T00:09:43;78527.63;;;-146.65;100.00
57094;BME280;42970;50.996;3.706;2022-12-13T00:12:09;78527.63;;;-146.65;100.00
57094;BME280;42970;50.996;3.706;2022-12-13T00:14:34;78521.56;;;-146.65;100.00
57094;BME280;42970;50.996;3.706;2022-12-13T00:16:59;78519.53;;;-146.65;100.00
57094;BME280;42970;50.996;3.706;2022-12-13T00:19:25;78519.53;;;-146.65;100.00
57094;BME280;42970;50.996;3.706;2022-12-13T00:21:50;78521.56;;;-146.65;100.00
57094;BME280;42970;50.996;3.706;2022-12-13T00:24:15;78527.63;;;-146.65;100.00
57094;BME280;42970;50.996;3.706;2022-12-13T00:26:41;78509.44;;;-146.65;100.00
57094;BME280;42970;50.996;3.706;2022-12-13T00:29:06;78511.47;;;-146.65;100.00
57094;BME280;42970;50.996;3.706;2022-12-13T00:31:35;78503.38;;;-146.65;100.00
57094;BME280;42970;50.996;3.706;2022-12-13T00:34:00;78495.31;;;-146.65;100.00
57094;BME280;42970;50.996;3.706;2022-12-13T00:36:26;78499.34;;;-146.65;100.00
57094;BME280;42970;50.996;3.706;2022-12-13T00:38:51;78499.34;;;-146.65;100.00
57094;BME280;42970;50.996;3.706;2022-12-13T00:41:30;78507.44;;;-146.65;100.00
57094;BME280;42970;50.996;3.706;2022-12-13T00:43:56;78491.28;;;-146.65;100.00
57094;BME280;42970;50.996;3.706;2022-12-13T00:46:21;78489.25;;;-146.65;100.00
57094;BME280;42970;50.996;3.706;2022-12-13T00:48:48;78491.28;;;-146.65;100.00
57094;BME280;42970;50.996;3.706;2022-12-13T00:51:13;78473.13;;;-146.65;100.00
57094;BME280;42970;50.996;3.706;2022-12-13T00:53:39;78471.09;;;-146.65;100.00
57094;BME280;42970;50.996;3.706;2022-12-13T00:56:09;78479.16;;;-146.65;100.00
57094;BME280;42970;50.996;3.706;2022-12-13T00:58:35;78479.16;;;-146.65;100.00
57094;BME280;42970;50.996;3.706;2022-12-13T01:01:01;78489.25;;;-146.65;100.00
57094;BME280;42970;50.996;3.706;2022-12-13T01:03:27;78503.38;;;-146.65;100.00
57094;BME280;42970;50.996;3.706;2022-12-13T01:05:52;78499.34;;;-146.65;100.00
57094;BME280;42970;50.996;3.706;2022-12-13T01:08:18;78509.44;;;-146.65;100.00
57094;BME280;42970;50.996;3.706;2022-12-13T01:10:44;78511.47;;;-146.65;100.00
57094;BME280;42970;50.996;3.706;2022-12-13T01:13:10;78523.56;;;-146.65;100.00
57094;BME280;42970;50.996;3.706;2022-12-13T01:15:39;78517.53;;;-146.65;100.00
57094;BME280;42970;50.996;3.706;2022-12-13T01:18:04;78527.63;;;-146.65;100.00
57094;BME280;42970;50.996;3.706;2022-12-13T01:20:29;78497.34;;;-146.65;100.00
57094;BME280;42970;50.996;3.706;2022-12-13T01:22:55;78503.38;;;-146.65;100.00
57094;BME280;42970;50.996;3.706;2022-12-13T01:25:20;78495.31;;;-146.65;100.00
57094;BME280;42970;50.996;3.706;2022-12-13T01:27:45;78497.34;;;-146.65;100.00
57094;BME280;42970;50.996;3.706;2022-12-13T01:30:11;78505.41;;;-146.65;100.00
57094;BME280;42970;50.996;3.706;2022-12-13T01:32:36;78513.47;;;-146.65;100.00
57094;BME280;42970;50.996;3.706;2022-12-13T01:35:01;78503.38;;;-146.65;100.00
57094;BME280;42970;50.996;3.706;2022-12-13T01:37:30;78527.63;;;-146.65;100.00
57094;BME280;42970;50.996;3.706;2022-12-13T01:39:55;78533.66;;;-146.65;100.00
57094;BME280;42970;50.996;3.706;2022-12-13T01:42:20;78555.88;;;-146.65;100.00
57094;BME280;42970;50.996;3.706;2022-12-13T01:44:56;78567.97;;;-146.65;100.00
57094;BME280;42970;50.996;3.706;2022-12-13T01:47:26;78580.09;;;-146.65;100.00
57094;BME280;42970;50.996;3.706;2022-12-13T01:49:53;78574.03;;;-146.65;100.00
57094;BME280;42970;50.996;3.706;2022-12-13T01:52:19;78533.66;;;-146.65;100.00
57094;BME280;42970;50.996;3.706;2022-12-13T01:54:46;78531.66;;;-146.65;100.00
57094;BME280;42970;50.996;3.706;2022-12-13T01:57:12;78531.66;;;-146.65;100.00
57094;BME280;42970;50.996;3.706;2022-12-13T01:59:40;78529.63;;;-146.65;100.00
57094;BME280;42970;50.996;3.706;2022-12-13T02:02:05;78535.69;;;-146.65;100.00
57094;BME280;42970;50.996;3.706;2022-12-13T02:07:06;78545.78;;;-146.65;100.00
57094;BME280;42970;50.996;3.706;2022-12-13T02:09:32;78535.69;;;-146.65;100.00
57094;BME280;42970;50.996;3.706;2022-12-13T02:11:58;78531.66;;;-146.65;100.00
57094;BME280;42970;50.996;3.706;2022-12-13T02:14:24;78535.69;;;-146.65;100.00
57094;BME280;42970;50.996;3.706;2022-12-13T02:16:56;78545.78;;;-146.65;100.00
57094;BME280;42970;50.996;3.706;2022-12-13T02:32:08;78503.38;;;-146.65;100.00
57094;BME280;42970;50.996;3.706;2022-12-13T02:37:07;78511.47;;;-146.65;100.00
57094;BME280;42970;50.996;3.706;2022-12-13T02:39:40;78497.34;;;-146.65;100.00
57094;BME280;42970;50.996;3.706;2022-12-13T02:42:15;78501.38;;;-146.65;100.00
57094;BME280;42970;50.996;3.706;2022-12-13T02:44:46;78495.31;;;-146.65;100.00
57094;BME280;42970;50.996;3.706;2022-12-13T02:47:18;78497.34;;;-146.65;100.00
57094;BME280;42970;50.996;3.706;2022-12-13T02:49:47;78489.25;;;-146.65;100.00
57094;BME280;42970;50.996;3.706;2022-12-13T02:52:14;78485.22;;;-146.65;100.00
57094;BME280;42970;50.996;3.706;2022-12-13T02:54:41;78479.16;;;-146.65;100.00
57094;BME280;42970;50.996;3.706;2022-12-13T02:59:50;78479.16;;;-146.65;100.00
57094;BME280;42970;50.996;3.706;2022-12-13T03:02:16;78487.25;;;-146.65;100.00
57094;BME280;42970;50.996;3.706;2022-12-13T03:07:52;78499.34;;;-146.65;100.00
57094;BME280;42970;50.996;3.706;2022-12-13T03:10:32;78495.31;;;-146.65;100.00
57094;BME280;42970;50.996;3.706;2022-12-13T03:13:04;78503.38;;;-146.65;100.00
57094;BME280;42970;50.996;3.706;2022-12-13T03:15:59;78501.38;;;-146.65;100.00
57094;BME280;42970;50.996;3.706;2022-12-13T03:18:28;78503.38;;;-146.65;100.00
57094;BME280;42970;50.996;3.706;2022-12-13T03:20:58;78507.44;;;-146.65;100.00
57094;BME280;42970;50.996;3.706;2022-12-13T03:23:24;78507.44;;;-146.65;100.00
57094;BME280;42970;50.996;3.706;2022-12-13T03:25:52;78511.47;;;-146.65;100.00
57094;BME280;42970;50.996;3.706;2022-12-13T03:28:18;78507.44;;;-146.65;100.00
57094;BME280;42970;50.996;3.706;2022-12-13T03:30:44;78503.38;;;-146.65;100.00
57094;BME280;42970;50.996;3.706;2022-12-13T03:33:09;78513.47;;;-146.65;100.00
57094;BME280;42970;50.996;3.706;2022-12-13T03:35:34;78513.47;;;-146.65;100.00
57094;BME280;42970;50.996;3.706;2022-12-13T03:38:00;78521.56;;;-146.65;100.00
57094;BME280;42970;50.996;3.706;2022-12-13T03:40:26;78509.44;;;-146.65;100.00
57094;BME280;42970;50.996;3.706;2022-12-13T03:42:51;78511.47;;;-146.65;100.00
57094;BME280;42970;50.996;3.706;2022-12-13T03:45:17;78513.47;;;-146.65;100.00
57094;BME280;42970;50.996;3.706;2022-12-13T03:47:43;78515.50;;;-146.65;100.00
57094;BME280;42970;50.996;3.706;2022-12-13T03:50:08;78507.44;;;-146.65;100.00
57094;BME280;42970;50.996;3.706;2022-12-13T03:52:33;78521.56;;;-146.65;100.00
57094;BME280;42970;50.996;3.706;2022-12-13T03:54:58;78527.63;;;-146.65;100.00
57094;BME280;42970;50.996;3.706;2022-12-13T03:57:24;78531.66;;;-146.65;100.00
57094;BME280;42970;50.996;3.706;2022-12-13T03:59:49;78527.63;;;-146.65;100.00
57094;BME280;42970;50.996;3.706;2022-12-13T04:02:14;78539.72;;;-146.65;100.00
57094;BME280;42970;50.996;3.706;2022-12-13T04:04:40;78533.66;;;-146.65;100.00
57094;BME280;42970;50.996;3.706;2022-12-13T04:07:05;78527.63;;;-146.65;100.00
57094;BME280;42970;50.996;3.706;2022-12-13T04:09:30;78531.66;;;-146.65;100.00
57094;BME280;42970;50.996;3.706;2022-12-13T04:11:56;78543.75;;;-146.65;100.00
57094;BME280;42970;50.996;3.706;2022-12-13T04:14:40;78559.91;;;-146.65;100.00
57094;BME280;42970;50.996;3.706;2022-12-13T04:17:05;78563.94;;;-146.65;100.00
57094;BME280;42970;50.996;3.706;2022-12-13T04:19:30;78549.81;;;-146.65;100.00
57094;BME280;42970;50.996;3.706;2022-12-13T04:21:55;78549.81;;;-146.65;100.00
57094;BME280;42970;50.996;3.706;2022-12-13T04:24:21;78543.75;;;-146.65;100.00
57094;BME280;42970;50.996;3.706;2022-12-13T04:26:47;78545.78;;;-146.65;100.00
57094;BME280;42970;50.996;3.706;2022-12-13T04:29:12;78555.88;;;-146.65;100.00
57094;BME280;42970;50.996;3.706;2022-12-13T04:31:38;78549.81;;;-146.65;100.00
57094;BME280;42970;50.996;3.706;2022-12-13T04:34:03;78541.75;;;-146.65;100.00
57094;BME280;42970;50.996;3.706;2022-12-13T04:36:28;78541.75;;;-146.65;100.00
57094;BME280;42970;50.996;3.706;2022-12-13T04:38:54;78537.72;;;-146.65;100.00
57094;BME280;42970;50.996;3.706;2022-12-13T04:41:19;78535.69;;;-146.65;100.00
57094;BME280;42970;50.996;3.706;2022-12-13T04:43:49;78533.66;;;-146.65;100.00
57094;BME280;42970;50.996;3.706;2022-12-13T04:46:14;78535.69;;;-146.65;100.00
57094;BME280;42970;50.996;3.706;2022-12-13T04:48:42;78545.78;;;-146.65;100.00
57094;BME280;42970;50.996;3.706;2022-12-13T04:51:07;78543.75;;;-146.65;100.00
57094;BME280;42970;50.996;3.706;2022-12-13T04:53:32;78547.81;;;-146.65;100.00
57094;BME280;42970;50.996;3.706;2022-12-13T04:55:58;78549.81;;;-146.65;100.00
57094;BME280;42970;50.996;3.706;2022-12-13T04:58:23;78551.84;;;-146.65;100.00
57094;BME280;42970;50.996;3.706;2022-12-13T05:00:49;78543.75;;;-146.65;100.00
57094;BME280;42970;50.996;3.706;2022-12-13T05:03:14;78543.75;;;-146.65;100.00
57094;BME280;42970;50.996;3.706;2022-12-13T05:05:39;78543.75;;;-146.65;100.00
57094;BME280;42970;50.996;3.706;2022-12-13T05:08:05;78543.75;;;-146.65;100.00
57094;BME280;42970;50.996;3.706;2022-12-13T05:10:33;78543.75;;;-146.65;100.00
57094;BME280;42970;50.996;3.706;2022-12-13T05:13:01;78537.72;;;-146.65;100.00
57094;BME280;42970;50.996;3.706;2022-12-13T05:15:27;78535.69;;;-146.65;100.00
57094;BME280;42970;50.996;3.706;2022-12-13T05:17:54;78547.81;;;-146.65;100.00
57094;BME280;42970;50.996;3.706;2022-12-13T05:20:20;78551.84;;;-146.65;100.00
57094;BME280;42970;50.996;3.706;2022-12-13T05:22:45;78543.75;;;-146.65;100.00
57094;BME280;42970;50.996;3.706;2022-12-13T05:25:10;78547.81;;;-146.65;100.00
57094;BME280;42970;50.996;3.706;2022-12-13T05:27:36;78551.84;;;-146.65;100.00
57094;BME280;42970;50.996;3.706;2022-12-13T05:30:01;78563.94;;;-146.65;100.00
57094;BME280;42970;50.996;3.706;2022-12-13T05:32:29;78567.97;;;-146.65;100.00
57094;BME280;42970;50.996;3.706;2022-12-13T05:34:55;78563.94;;;-146.65;100.00
57094;BME280;42970;50.996;3.706;2022-12-13T05:37:22;78561.94;;;-146.65;100.00
57094;BME280;42970;50.996;3.706;2022-12-13T05:39:47;78555.88;;;-146.65;100.00
57094;BME280;42970;50.996;3.706;2022-12-13T05:42:13;78555.88;;;-146.65;100.00
57094;BME280;42970;50.996;3.706;2022-12-13T05:44:38;78565.97;;;-146.65;100.00
57094;BME280;42970;50.996;3.706;2022-12-13T05:47:06;78572.03;;;-146.65;100.00
57094;BME280;42970;50.996;3.706;2022-12-13T05:49:31;78586.16;;;-146.65;100.00
57094;BME280;42970;50.996;3.706;2022-12-13T05:51:57;78590.19;;;-146.65;100.00
57094;BME280;42970;50.996;3.706;2022-12-13T05:54:24;78588.16;;;-146.65;100.00
57094;BME280;42970;50.996;3.706;2022-12-13T05:56:50;78594.22;;;-146.65;100.00
57094;BME280;42970;50.996;3.706;2022-12-13T05:59:15;78606.34;;;-146.65;100.00
57094;BME280;42970;50.996;3.706;2022-12-13T06:01:43;78622.50;;;-146.65;100.00
57094;BME280;42970;50.996;3.706;2022-12-13T06:04:08;78628.53;;;-146.65;100.00
57094;BME280;42970;50.996;3.706;2022-12-13T06:06:33;78628.53;;;-146.65;100.00
57094;BME280;42970;50.996;3.706;2022-12-13T06:08:59;78630.56;;;-146.65;100.00
57094;BME280;42970;50.996;3.706;2022-12-13T06:11:24;78618.44;;;-146.65;100.00
57094;BME280;42970;50.996;3.706;2022-12-13T06:13:50;78602.31;;;-146.65;100.00
57094;BME280;42970;50.996;3.706;2022-12-13T06:16:16;78612.41;;;-146.65;100.00
57094;BME280;42970;50.996;3.706;2022-12-13T06:18:41;78608.34;;;-146.65;100.00
57094;BME280;42970;50.996;3.706;2022-12-13T06:21:06;78600.28;;;-146.65;100.00
57094;BME280;42970;50.996;3.706;2022-12-13T06:23:32;78604.31;;;-146.65;100.00
57094;BME280;42970;50.996;3.706;2022-12-13T06:25:58;78586.16;;;-146.65;100.00
57094;BME280;42970;50.996;3.706;2022-12-13T06:28:26;78580.09;;;-146.65;100.00
57094;BME280;42970;50.996;3.706;2022-12-13T06:30:51;78584.13;;;-146.65;100.00
57094;BME280;42970;50.996;3.706;2022-12-13T06:33:17;78582.13;;;-146.65;100.00
57094;BME280;42970;50.996;3.706;2022-12-13T06:35:43;78576.06;;;-146.65;100.00
57094;BME280;42970;50.996;3.706;2022-12-13T06:38:08;78580.09;;;-146.65;100.00
57094;BME280;42970;50.996;3.706;2022-12-13T06:40:33;78580.09;;;-146.65;100.00
57094;BME280;42970;50.996;3.706;2022-12-13T06:42:59;78572.03;;;-146.65;100.00
57094;BME280;42970;50.996;3.706;2022-12-13T06:45:24;78572.03;;;-146.65;100.00
57094;BME280;42970;50.996;3.706;2022-12-13T06:47:50;78576.06;;;-146.65;100.00
57094;BME280;42970;50.996;3.706;2022-12-13T06:50:15;78567.97;;;-146.65;100.00
57094;BME280;42970;50.996;3.706;2022-12-13T06:52:41;78567.97;;;-146.65;100.00
57094;BME280;42970;50.996;3.706;2022-12-13T06:55:06;78563.94;;;-146.65;100.00
57094;BME280;42970;50.996;3.706;2022-12-13T06:57:32;78563.94;;;-146.65;100.00
57094;BME280;42970;50.996;3.706;2022-12-13T06:59:58;78563.94;;;-146.65;100.00
57094;BME280;42970;50.996;3.706;2022-12-13T07:02:23;78572.03;;;-146.65;100.00
57094;BME280;42970;50.996;3.706;2022-12-13T07:04:49;78598.25;;;-146.65;100.00
57094;BME280;42970;50.996;3.706;2022-12-13T07:07:14;78580.09;;;-146.65;100.00
57094;BME280;42970;50.996;3.706;2022-12-13T07:09:40;78582.13;;;-146.65;100.00
57094;BME280;42970;50.996;3.706;2022-12-13T07:12:05;78578.06;;;-146.65;100.00
57094;BME280;42970;50.996;3.706;2022-12-13T07:14:31;78582.13;;;-146.65;100.00
57094;BME280;42970;50.996;3.706;2022-12-13T07:16:57;78586.16;;;-146.65;100.00
57094;BME280;42970;50.996;3.706;2022-12-13T07:19:22;78580.09;;;-146.65;100.00
57094;BME280;42970;50.996;3.706;2022-12-13T07:21:48;78582.13;;;-146.65;100.00
57094;BME280;42970;50.996;3.706;2022-12-13T07:24:13;78582.13;;;-146.65;100.00
57094;BME280;42970;50.996;3.706;2022-12-13T07:26:38;78582.13;;;-146.65;100.00
57094;BME280;42970;50.996;3.706;2022-12-13T07:29:04;78588.16;;;-146.65;100.00
57094;BME280;42970;50.996;3.706;2022-12-13T07:31:29;78578.06;;;-146.65;100.00
57094;BME280;42970;50.996;3.706;2022-12-13T07:33:55;78578.06;;;-146.65;100.00
57094;BME280;42970;50.996;3.706;2022-12-13T07:36:21;78576.06;;;-146.65;100.00
57094;BME280;42970;50.996;3.706;2022-12-13T07:38:50;78582.13;;;-146.65;100.00
57094;BME280;42970;50.996;3.706;2022-12-13T07:41:16;78576.06;;;-146.65;100.00
57094;BME280;42970;50.996;3.706;2022-12-13T07:43:41;78576.06;;;-146.65;100.00
57094;BME280;42970;50.996;3.706;2022-12-13T07:46:06;78582.13;;;-146.65;100.00
57094;BME280;42970;50.996;3.706;2022-12-13T07:48:32;78576.06;;;-146.65;100.00
57094;BME280;42970;50.996;3.706;2022-12-13T07:51:01;78559.91;;;-146.65;100.00
57094;BME280;42970;50.996;3.706;2022-12-13T07:53:27;78567.97;;;-146.65;100.00
57094;BME280;42970;50.996;3.706;2022-12-13T07:55:53;78580.09;;;-146.65;100.00
57094;BME280;42970;50.996;3.706;2022-12-13T07:58:18;78567.97;;;-146.65;100.00
57094;BME280;42970;50.996;3.706;2022-12-13T08:00:44;78570.00;;;-146.65;100.00
57094;BME280;42970;50.996;3.706;2022-12-13T08:03:09;78559.91;;;-146.65;100.00
57094;BME280;42970;50.996;3.706;2022-12-13T08:05:35;78567.97;;;-146.65;100.00
57094;BME280;42970;50.996;3.706;2022-12-13T08:08:01;78551.84;;;-146.65;100.00
57094;BME280;42970;50.996;3.706;2022-12-13T08:10:27;78547.81;;;-146.65;100.00
57094;BME280;42970;50.996;3.706;2022-12-13T08:12:52;78547.81;;;-146.65;100.00
57094;BME280;42970;50.996;3.706;2022-12-13T08:15:18;78537.72;;;-146.65;100.00
57094;BME280;42970;50.996;3.706;2022-12-13T08:17:44;78531.66;;;-146.65;100.00
57094;BME280;42970;50.996;3.706;2022-12-13T08:20:09;78533.66;;;-146.65;100.00
57094;BME280;42970;50.996;3.706;2022-12-13T08:22:34;78529.63;;;-146.65;100.00
57094;BME280;42970;50.996;3.706;2022-12-13T08:25:00;78523.56;;;-146.65;100.00
57094;BME280;42970;50.996;3.706;2022-12-13T08:27:25;78521.56;;;-146.65;100.00
57094;BME280;42970;50.996;3.706;2022-12-13T08:29:51;78519.53;;;-146.65;100.00
57094;BME280;42970;50.996;3.706;2022-12-13T08:32:17;78527.63;;;-146.65;100.00
57094;BME280;42970;50.996;3.706;2022-12-13T08:34:42;78525.59;;;-146.65;100.00
57094;BME280;42970;50.996;3.706;2022-12-13T08:37:08;78507.44;;;-146.65;100.00
57094;BME280;42970;50.996;3.706;2022-12-13T08:39:34;78501.38;;;-146.65;100.00
57094;BME280;42970;50.996;3.706;2022-12-13T08:42:01;78501.38;;;-146.65;100.00
57094;BME280;42970;50.996;3.706;2022-12-13T08:44:26;78483.22;;;-146.65;100.00
57094;BME280;42970;50.996;3.706;2022-12-13T08:46:51;78461.00;;;-146.65;100.00
57094;BME280;42970;50.996;3.706;2022-12-13T08:49:17;78420.63;;;-146.65;100.00
57094;BME280;42970;50.996;3.706;2022-12-13T08:51:42;78370.16;;;-146.65;99.63
57094;BME280;42970;50.996;3.706;2022-12-13T08:54:07;78345.94;;;-146.65;98.36
57094;BME280;42970;50.996;3.706;2022-12-13T08:56:33;78325.75;;;-146.65;96.91
57094;BME280;42970;50.996;3.706;2022-12-13T08:58:59;78317.69;;;-146.65;96.14
57094;BME280;42970;50.996;3.706;2022-12-13T09:01:24;78289.44;;;-146.65;95.32
57094;BME280;42970;50.996;3.706;2022-12-13T09:03:50;78259.16;;;-146.65;94.19
57094;BME280;42970;50.996;3.706;2022-12-13T09:06:15;78220.81;;;-146.65;93.68
57094;BME280;42970;50.996;3.706;2022-12-13T09:08:41;78212.72;;;-146.65;92.46
57094;BME280;42970;50.996;3.706;2022-12-13T09:11:08;78226.88;;;-146.65;92.09
57094;BME280;42970;50.996;3.706;2022-12-13T09:13:34;78277.31;;;-146.65;93.13
57094;BME280;42970;50.996;3.706;2022-12-13T09:18:29;78232.91;;;-146.65;91.94
57094;BME280;42970;50.996;3.706;2022-12-13T09:20:55;78241.00;;;-146.65;91.66
57094;BME280;42970;50.996;3.706;2022-12-13T09:23:21;78236.94;;;-146.65;92.52
57094;BME280;42970;50.996;3.706;2022-12-13T09:25:52;78224.84;;;-146.65;92.67
57094;BME280;42970;50.996;3.706;2022-12-13T09:28:18;78241.00;;;-146.65;93.25
57094;BME280;42970;50.996;3.706;2022-12-13T09:30:44;78196.59;;;-146.65;93.22
57094;BME280;42970;50.996;3.706;2022-12-13T09:33:09;78166.31;;;-146.65;92.60
57094;BME280;42970;50.996;3.706;2022-12-13T09:35:36;78158.25;;;-146.65;91.74
57094;BME280;42970;50.996;3.706;2022-12-13T09:38:01;78180.44;;;-146.65;91.10
57094;BME280;42970;50.996;3.706;2022-12-13T09:40:28;78180.44;;;-146.65;90.61
57094;BME280;42970;50.996;3.706;2022-12-13T09:42:54;78176.41;;;-146.65;90.87
57094;BME280;42970;50.996;3.706;2022-12-13T09:45:20;78093.66;;;-146.65;89.63
57094;BME280;42970;50.996;3.706;2022-12-13T09:47:46;78023.00;;;-146.65;87.46
57094;BME280;42970;50.996;3.706;2022-12-13T09:50:13;78002.81;;;-146.65;84.90
57094;BME280;42970;50.996;3.706;2022-12-13T09:52:40;77976.59;;;-146.65;83.04
57094;BME280;42970;50.996;3.706;2022-12-13T09:55:14;77922.09;;;-146.65;82.74
57094;BME280;42970;50.996;3.706;2022-12-13T09:57:41;77853.47;;;-146.65;80.00
57094;BME280;42970;50.996;3.706;2022-12-13T10:00:10;77946.31;;;-146.65;81.07
57094;BME280;42970;50.996;3.706;2022-12-13T10:02:41;77901.91;;;-146.65;80.90
57094;BME280;42970;50.996;3.706;2022-12-13T10:07:37;77819.16;;;-146.65;77.99
57094;BME280;42970;50.996;3.706;2022-12-13T10:10:04;77837.34;;;-146.65;76.90
57094;BME280;42970;50.996;3.706;2022-12-13T10:12:29;77893.84;;;-146.65;78.54
57094;BME280;42970;50.996;3.706;2022-12-13T10:14:57;77909.97;;;-146.65;79.14
57094;BME280;42970;50.996;3.706;2022-12-13T10:17:25;77845.41;;;-146.65;78.56
57094;BME280;42970;50.996;3.706;2022-12-13T10:19:52;77803.03;;;-146.65;76.54
57094;BME280;42970;50.996;3.706;2022-12-13T10:22:18;77762.66;;;-146.65;76.45
57094;BME280;42970;50.996;3.706;2022-12-13T10:24:57;77724.31;;;-146.65;75.09
57094;BME280;42970;50.996;3.706;2022-12-13T10:27:40;77778.81;;;-146.65;73.60
57094;BME280;42970;50.996;3.706;2022-12-13T10:30:08;77740.47;;;-146.65;73.87
57094;BME280;42970;50.996;3.706;2022-12-13T10:35:18;77790.91;;;-146.65;72.94
57094;BME280;42970;50.996;3.706;2022-12-13T10:37:44;77794.94;;;-146.65;72.30
57094;BME280;42970;50.996;3.706;2022-12-13T10:40:22;77724.31;;;-146.65;70.85
57094;BME280;42970;50.996;3.706;2022-12-13T10:43:04;77673.84;;;-146.65;69.74
57094;BME280;42970;50.996;3.706;2022-12-13T10:45:29;77671.84;;;-146.65;67.92
57094;BME280;42970;50.996;3.706;2022-12-13T10:47:54;77663.78;;;-146.65;69.19
57094;BME280;42970;50.996;3.706;2022-12-13T10:50:24;77657.72;;;-146.65;68.23
57094;BME280;42970;50.996;3.706;2022-12-13T10:52:50;77619.38;;;-146.65;66.22
57094;BME280;42970;50.996;3.706;2022-12-13T10:55:31;77601.22;;;-146.65;65.53
57094;BME280;42970;50.996;3.706;2022-12-13T10:58:01;77613.31;;;-146.65;66.91
57094;BME280;42970;50.996;3.706;2022-12-13T11:02:58;77566.91;;;-146.65;67.38
57094;BME280;42970;50.996;3.706;2022-12-13T11:05:28;77603.22;;;-146.65;66.02
57094;BME280;42970;50.996;3.706;2022-12-13T11:07:54;77659.72;;;-146.65;66.17
57094;BME280;42970;50.996;3.706;2022-12-13T11:10:26;77653.69;;;-146.65;66.74
57094;BME280;42970;50.996;3.706;2022-12-13T11:13:02;77716.25;;;-146.65;67.62
57094;BME280;42970;50.996;3.706;2022-12-13T11:15:29;77692.03;;;-146.65;67.41
57094;BME280;42970;50.996;3.706;2022-12-13T11:18:00;77653.69;;;-146.65;67.90
57094;BME280;42970;50.996;3.706;2022-12-13T11:20:27;77637.53;;;-146.65;68.07
57094;BME280;42970;50.996;3.706;2022-12-13T11:23:18;77683.94;;;-146.65;68.73
57094;BME280;42970;50.996;3.706;2022-12-13T11:25:47;77776.78;;;-146.65;71.13
57094;BME280;42970;50.996;3.706;2022-12-13T11:31:00;77825.22;;;-146.65;73.51
57094;BME280;42970;50.996;3.706;2022-12-13T11:33:47;77813.13;;;-146.65;74.35
57094;BME280;42970;50.996;3.706;2022-12-13T11:36:27;77794.94;;;-146.65;73.89
57094;BME280;42970;50.996;3.706;2022-12-13T11:39:17;77801.00;;;-146.65;74.35
57094;BME280;42970;50.996;3.706;2022-12-13T11:47:05;77784.84;;;-146.65;74.56
57094;BME280;42970;50.996;3.706;2022-12-13T11:49:36;77784.84;;;-146.65;74.30
57094;BME280;42970;50.996;3.706;2022-12-13T11:54:48;77746.50;;;-146.65;73.85
57094;BME280;42970;50.996;3.706;2022-12-13T11:57:17;77758.63;;;-146.65;74.74
57094;BME280;42970;50.996;3.706;2022-12-13T11:59:49;77756.59;;;-146.65;74.39
57094;BME280;42970;50.996;3.706;2022-12-13T12:04:51;77724.31;;;-146.65;75.10
57094;BME280;42970;50.996;3.706;2022-12-13T12:07:28;77732.38;;;-146.65;74.69
57094;BME280;42970;50.996;3.706;2022-12-13T12:09:56;77768.72;;;-146.65;75.48
57094;BME280;42970;50.996;3.706;2022-12-13T12:12:23;77740.47;;;-146.65;75.95
57094;BME280;42970;50.996;3.706;2022-12-13T12:15:09;77752.56;;;-146.65;75.64
57094;BME280;42970;50.996;3.706;2022-12-13T12:17:36;77774.75;;;-146.65;76.13
57094;BME280;42970;50.996;3.706;2022-12-13T12:20:01;77768.72;;;-146.65;76.91
57094;BME280;42970;50.996;3.706;2022-12-13T12:25:06;77770.72;;;-146.65;76.71
57094;BME280;42970;50.996;3.706;2022-12-13T12:30:10;77786.88;;;-146.65;77.67
57094;BME280;42970;50.996;3.706;2022-12-13T12:32:56;77768.72;;;-146.65;78.31
57094;BME280;42970;50.996;3.706;2022-12-13T12:41:04;77740.47;;;-146.65;78.36
57094;BME280;42970;50.996;3.706;2022-12-13T12:43:38;77746.50;;;-146.65;77.82
57094;BME280;42970;50.996;3.706;2022-12-13T12:46:07;77752.56;;;-146.65;77.67
57094;BME280;42970;50.996;3.706;2022-12-13T12:48:51;77760.63;;;-146.65;78.25
57094;BME280;42970;50.996;3.706;2022-12-13T12:51:46;77752.56;;;-146.65;78.32
57094;BME280;42970;50.996;3.706;2022-12-13T13:01:54;77730.38;;;-146.65;77.49
57094;BME280;42970;50.996;3.706;2022-12-13T13:04:23;77740.47;;;-146.65;77.46
57094;BME280;42970;50.996;3.706;2022-12-13T13:07:25;77760.63;;;-146.65;78.00
57094;BME280;42970;50.996;3.706;2022-12-13T13:09:42;77764.69;;;-146.65;78.46
57094;BME280;42970;50.996;3.706;2022-12-13T13:12:09;77752.56;;;-146.65;78.63
57094;BME280;42970;50.996;3.706;2022-12-13T13:14:36;77746.50;;;-146.65;78.14
57094;BME280;42970;50.996;3.706;2022-12-13T13:19:52;77764.69;;;-146.65;78.48
57094;BME280;42970;50.996;3.706;2022-12-13T13:22:36;77764.69;;;-146.65;78.44
57094;BME280;42970;50.996;3.706;2022-12-13T13:27:30;77764.69;;;-146.65;78.41
57094;BME280;42970;50.996;3.706;2022-12-13T13:32:40;77756.59;;;-146.65;78.56
57094;BME280;42970;50.996;3.706;2022-12-13T13:37:50;77752.56;;;-146.65;79.23
57094;BME280;42970;50.996;3.706;2022-12-13T13:40:29;77744.50;;;-146.65;79.16
57094;BME280;42970;50.996;3.706;2022-12-13T13:45:29;77748.53;;;-146.65;79.18
57094;BME280;42970;50.996;3.706;2022-12-13T14:16:30;77760.63;;;-146.65;80.33
57094;BME280;42970;50.996;3.706;2022-12-13T14:27:15;77768.72;;;-146.65;80.24
57094;BME280;42970;50.996;3.706;2022-12-13T14:29:43;77760.63;;;-146.65;80.36